Flight Track Log - Related Links

Times and Time Zones

All times are in EDT time to prevent confusion due to time zone crossing. See the SWA946 flight status page for this flight to view local times or setup timezone preferences in your user account.

Time Position Orientation Groundspeed Altitude Reporting Facility
EDT Latitude Longitude Course Direction KTS MPH feet Rate Location/Type
Sun 12:45:56 AM 32.7436 -117.2203 304° West 194 223 1,800  Level Los Angeles Center
Sun 12:46:57 AM 32.7744 -117.2739 304° West 197 227 4,200 2,951 Climbing Los Angeles Center
Sun 12:47:58 AM 32.8164 -117.3444 305° West 254 292 7,800 3,295 Climbing Los Angeles Center
Sun 12:48:59 AM 32.8594 -117.4164 305° West 265 305 10,900 2,926 Climbing Los Angeles Center
Sun 12:49:59 AM 32.9142 -117.5061 306° West 321 369 13,700 3,074 Climbing Los Angeles Center
Sun 12:51:00 AM 33.0033 -117.5703 329° Northwest 372 428 17,100 3,295 Climbing Los Angeles Center
Sun 12:52:01 AM 33.0728 -117.6703 310° West 392 451 20,400 3,098 Climbing Los Angeles Center
Sun 12:53:02 AM 33.1433 -117.7778 308° West 408 470 23,400 2,754 Climbing Los Angeles Center
Sun 12:54:03 AM 33.2217 -117.8856 311° West 425 489 26,000 2,803 Climbing Los Angeles Center
Sun 12:55:04 AM 33.2997 -117.9981 310° West 437 503 29,100 3,025 Climbing Los Angeles Center
Sun 12:56:04 AM 33.3758 -118.1078 310° West 433 498 32,100 3,074 Climbing Los Angeles Center
Sun 12:57:05 AM 33.4642 -118.2353 310° West 416 479 35,300 2,656 Climbing Los Angeles Center
Sun 12:58:06 AM 33.5369 -118.3408 310° West 410 472 37,500 2,016 Climbing Los Angeles Center
Sun 12:59:07 AM 33.6097 -118.4472 309° West 407 468 39,400 1,119 Climbing Los Angeles Center
Sun 01:00:20 AM 33.6689 -118.5325 310° West 407 468 40,000 271 Climbing Los Angeles Center
Sun 01:01:20 AM 33.7575 -118.6592 310° West 409 471 40,000  Level Los Angeles Center
Sun 01:02:21 AM 33.8439 -118.7850 310° West 406 467 40,000  Level Los Angeles Center
Sun 01:03:22 AM 33.9153 -118.8892 310° West 403 464 40,000  Level Los Angeles Center
Sun 01:04:23 AM 33.9869 -118.9953 309° West 407 468 40,000  Level Los Angeles Center
Sun 01:05:23 AM 34.0583 -119.1008 309° West 407 468 40,000  Level Los Angeles Center
Sun 01:06:24 AM 34.1300 -119.2067 309° West 407 468 40,000  Level Los Angeles Center
Sun 01:07:25 AM 34.2006 -119.3114 309° West 404 465 40,000  Level Los Angeles Center
Sun 01:08:26 AM 34.2714 -119.4167 309° West 404 465 40,000  Level Los Angeles Center
Sun 01:09:26 AM 34.3408 -119.5214 309° West 402 463 40,000  Level Los Angeles Center
Sun 01:10:27 AM 34.4106 -119.6253 309° West 399 459 40,000  Level Los Angeles Center
Sun 01:11:28 AM 34.4800 -119.7294 309° West 398 458 40,000  Level Los Angeles Center
Sun 01:12:29 AM 34.5569 -119.8261 314° West 401 461 40,000  Level Los Angeles Center
Sun 01:13:29 AM 34.6372 -119.9081 320° Northwest 413 475 40,000  Level Los Angeles Center
Sun 01:14:30 AM 34.7344 -120.0167 317° Northwest 402 463 40,000  Level Los Angeles Center
Sun 01:15:31 AM 34.8175 -120.1078 318° Northwest 405 466 40,000  Level Los Angeles Center
Sun 01:16:31 AM 34.8997 -120.1986 318° Northwest 404 465 40,000  Level Los Angeles Center
Sun 01:17:32 AM 34.9831 -120.2900 318° Northwest 406 467 40,000  Level Los Angeles Center
Sun 01:18:33 AM 35.0656 -120.3811 318° Northwest 404 465 40,000  Level Los Angeles Center
Sun 01:19:33 AM 35.1492 -120.4739 318° Northwest 407 468 40,000  Level Los Angeles Center
Sun 01:20:34 AM 35.2325 -120.5675 317° Northwest 409 471 40,000  Level Los Angeles Center
Sun 01:21:35 AM 35.3156 -120.6611 317° Northwest 407 468 40,000  Level Los Angeles Center
Sun 01:22:35 AM 35.4069 -120.7403 325° Northwest 405 466 40,000  Level Los Angeles Center
Sun 01:23:05 AM 35.4614 -120.7869 325° Northwest 406 467 40,000  Level Oakland Center
Sun 01:24:06 AM 35.5522 -120.8692 324° Northwest 404 465 40,000  Level Oakland Center
Sun 01:25:06 AM 35.6436 -120.9517 324° Northwest 407 468 40,000 -50 Level Oakland Center
Sun 01:26:07 AM 35.7331 -121.0383 322° Northwest 409 471 39,900 -545 Descending Oakland Center
Sun 01:27:07 AM 35.8239 -121.1192 324° Northwest 406 467 38,900 -992 Descending Oakland Center
Sun 01:28:08 AM 35.9150 -121.2025 323° Northwest 407 468 37,900 -942 Descending Oakland Center
Sun 01:29:08 AM 36.0081 -121.2886 323° Northwest 415 478 37,000 -942 Descending Oakland Center
Sun 01:30:09 AM 36.1017 -121.3683 325° Northwest 404 465 36,000 -942 Descending Oakland Center
Sun 01:31:09 AM 36.1936 -121.4531 323° Northwest 408 470 35,100 -942 Descending Oakland Center
Sun 01:32:10 AM 36.2861 -121.5392 323° Northwest 414 476 34,100 -1,884 Descending Oakland Center
Sun 01:33:10 AM 36.3769 -121.6192 325° Northwest 408 470 31,300 -3,391 Descending Oakland Center
Sun 01:33:42 AM 36.4333 -121.6833 318° Northwest 409 471 28,900 -3,391 Descending Northern Cal TRACON
Sun 01:34:42 AM 36.5333 -121.7667 326° Northwest 399 459 26,100 -2,800 Descending Northern Cal TRACON
Sun 01:35:42 AM 36.6167 -121.8500 321° Northwest 436 502 23,300 -2,789 Descending Northern Cal TRACON
Sun 01:36:36 AM 36.6833 -121.9167 321° Northwest 406 467 20,800 -2,600 Descending Northern Cal TRACON
Sun 01:37:42 AM 36.7833 -121.9667 338° Northwest 348 400 18,100 -2,476 Descending Northern Cal TRACON
Sun 01:38:42 AM 36.8833 -122.0000 345° North 335 386 15,600 -2,505 Descending Northern Cal TRACON
Sun 01:39:13 AM 36.9208 -122.0089 349° North 335 386 14,300 -2,440 Descending Oakland Center
Sun 01:40:13 AM 37.0083 -122.0317 348° North 325 374 11,900 -1,835 Descending Oakland Center
Sun 01:41:14 AM 37.0928 -122.0528 349° North 314 361 10,600 -992 Descending Oakland Center
Sun 01:42:14 AM 37.1692 -122.0747 347° North 289 333 9,900 -1,041 Descending Oakland Center
Sun 01:43:15 AM 37.2394 -122.0933 348° North 265 305 8,500 -1,388 Descending Oakland Center
Sun 01:44:15 AM 37.3097 -122.1119 348° North 259 298 7,100 -1,450 Descending Oakland Center
Sun 01:45:15 AM 37.3789 -122.1294 349° North 256 295 5,600 -1,190 Descending Oakland Center
Sun 01:46:16 AM 37.4469 -122.1486 347° North 253 291 4,700 -893 Descending Oakland Center
Sun 01:47:16 AM 37.5067 -122.1644 348° North 231 266 3,800 -1,041 Descending Oakland Center
Sun 01:48:17 AM 37.5453 -122.2061 319° Northwest 216 249 2,600 -1,041 Descending Oakland Center
Sun 01:49:17 AM 37.5703 -122.2631 299° West 195 224 1,700 -900 Descending Oakland Center
Sun 01:50:17 AM 37.5906 -122.3131 297° West 177 204 800 -744 Descending Oakland Center
Sun 01:51:18 AM 37.6056 -122.3478 299° West 138 159 200 -590 Descending Oakland Center
Sun 01:53:00 AM 37.6167 -122.3667 322° Northwest  Level FlightAware Approximate

Login

Don't have an account? Register now (free) for customized features, flight alerts, and more!